createdAt,value
2018-05-19T00:01:34.458Z,32.10
2018-05-19T00:04:03.367Z,44.80
2018-05-19T00:06:31.498Z,27.13
2018-05-19T00:08:59.637Z,21.60
2018-05-19T00:11:27.765Z,30.33
2018-05-19T00:13:55.905Z,27.63
2018-05-19T00:16:24.036Z,22.10
2018-05-19T00:18:52.177Z,53.83
2018-05-19T00:21:21.143Z,19.97
2018-05-19T00:23:49.288Z,24.27
2018-05-19T00:26:17.424Z,20.00
2018-05-19T00:28:45.569Z,18.43
2018-05-19T00:31:14.464Z,21.00
2018-05-19T00:33:43.380Z,17.83
2018-05-19T00:36:11.512Z,23.63
2018-05-19T00:38:39.660Z,21.60
2018-05-19T00:41:07.821Z,27.47
2018-05-19T00:43:35.964Z,21.17
2018-05-19T00:46:04.121Z,17.63
2018-05-19T00:48:32.262Z,16.83
2018-05-19T00:51:00.423Z,16.60
2018-05-19T00:53:28.591Z,25.73
2018-05-19T00:55:56.729Z,18.97
2018-05-19T00:58:24.860Z,16.00
2018-05-19T01:00:53.010Z,22.23
2018-05-19T01:03:21.155Z,16.40
2018-05-19T01:05:49.307Z,22.30
2018-05-19T01:08:17.477Z,35.57
2018-05-19T01:10:46.468Z,19.93
2018-05-19T01:13:14.600Z,23.43
2018-05-19T01:15:42.760Z,27.43
2018-05-19T01:18:10.900Z,31.87
2018-05-19T01:20:39.030Z,24.13
2018-05-19T01:23:07.935Z,19.17
2018-05-19T01:25:36.070Z,21.93
2018-05-19T01:28:04.286Z,21.97
2018-05-19T01:30:32.348Z,20.73
2018-05-19T01:33:00.497Z,25.57
2018-05-19T01:35:28.641Z,20.00
2018-05-19T01:37:56.784Z,19.23
2018-05-19T01:40:24.923Z,17.63
2018-05-19T01:42:53.841Z,18.90
2018-05-19T01:45:21.970Z,19.13
2018-05-19T01:47:50.125Z,24.93
2018-05-19T01:50:19.041Z,18.03
2018-05-19T01:52:47.948Z,20.33
2018-05-19T01:55:16.843Z,17.10
2018-05-19T01:57:44.988Z,16.60
2018-05-19T02:00:13.140Z,16.33
2018-05-19T02:02:41.304Z,19.13
2018-05-19T02:05:09.452Z,18.30
2018-05-19T02:07:37.581Z,15.97
2018-05-19T02:10:05.726Z,17.07
2018-05-19T02:12:33.867Z,17.67
2018-05-19T02:15:02.025Z,20.27
2018-05-19T02:17:30.152Z,17.53
2018-05-19T02:19:58.322Z,15.83
2018-05-19T02:22:26.461Z,15.97
2018-05-19T02:24:54.609Z,17.07
2018-05-19T02:27:22.745Z,17.20
2018-05-19T02:29:50.896Z,19.63
2018-05-19T02:32:19.039Z,17.63
2018-05-19T02:34:47.196Z,17.57
2018-05-19T02:37:15.329Z,18.33
2018-05-19T02:39:43.491Z,19.23
2018-05-19T02:42:12.700Z,16.93
2018-05-19T02:44:40.852Z,20.23
2018-05-19T02:47:08.985Z,21.47
2018-05-19T02:49:37.132Z,25.97
2018-05-19T02:52:05.262Z,19.17
2018-05-19T02:54:34.030Z,18.77
2018-05-19T02:57:02.153Z,18.03
2018-05-19T02:59:30.284Z,20.63
2018-05-19T03:01:59.541Z,22.07
2018-05-19T03:04:27.672Z,18.67
2018-05-19T03:06:55.824Z,22.23
2018-05-19T03:09:23.960Z,18.30
2018-05-19T03:11:52.105Z,19.00
2018-05-19T03:14:21.000Z,21.80
2018-05-19T03:16:49.165Z,18.00
2018-05-19T03:19:17.306Z,15.70
2018-05-19T03:21:45.453Z,17.27
2018-05-19T03:24:13.595Z,18.00
2018-05-19T03:26:42.512Z,15.20
2018-05-19T03:29:10.638Z,16.57
2018-05-19T03:31:38.820Z,15.70
2018-05-19T03:34:07.709Z,16.83
2018-05-19T03:36:36.620Z,17.00
2018-05-19T03:39:06.288Z,17.77
2018-05-19T03:41:34.510Z,16.27
2018-05-19T03:44:02.664Z,19.63
2018-05-19T03:46:31.576Z,17.73
2018-05-19T03:48:59.712Z,22.50
2018-05-19T03:51:27.860Z,16.23
2018-05-19T03:53:56.095Z,21.70
2018-05-19T03:56:24.234Z,20.27
2018-05-19T03:59:04.164Z,23.33
2018-05-19T04:01:44.020Z,21.80
2018-05-19T04:04:12.916Z,18.80
2018-05-19T04:06:41.824Z,17.60
2018-05-19T04:09:09.961Z,19.90
2018-05-19T04:11:38.109Z,20.03
2018-05-19T04:14:06.270Z,19.87
2018-05-19T04:16:34.367Z,20.67
2018-05-19T04:19:03.368Z,24.87
2018-05-19T04:21:31.504Z,19.40
2018-05-19T04:23:59.649Z,17.87
2018-05-19T04:26:27.781Z,18.43
2018-05-19T04:28:55.930Z,17.80
2018-05-19T04:31:24.061Z,19.30
2018-05-19T04:33:52.206Z,18.30
2018-05-19T04:36:21.101Z,19.03
2018-05-19T04:38:50.024Z,21.97
2018-05-19T04:41:18.148Z,18.03
2018-05-19T04:43:46.297Z,18.13
2018-05-19T04:46:14.420Z,19.97
2018-05-19T04:48:42.565Z,18.57
2018-05-19T04:51:11.476Z,21.80
2018-05-19T04:53:39.633Z,18.67
2018-05-19T04:56:08.545Z,17.40
2018-05-19T04:58:36.726Z,18.53
2018-05-19T05:01:04.872Z,21.40
2018-05-19T05:03:33.764Z,18.67
2018-05-19T05:06:01.914Z,18.30
2018-05-19T05:08:30.044Z,18.87
2018-05-19T05:10:58.199Z,21.07
2018-05-19T05:13:26.334Z,25.20
2018-05-19T05:15:54.476Z,23.20
2018-05-19T05:18:22.600Z,20.20
2018-05-19T05:20:50.751Z,22.33
2018-05-19T05:23:18.889Z,20.67
2018-05-19T05:25:47.822Z,24.50
2018-05-19T05:28:16.756Z,23.00
2018-05-19T05:30:44.909Z,21.37
2018-05-19T05:33:13.156Z,25.67
2018-05-19T05:35:41.321Z,26.50
2018-05-19T05:38:09.465Z,20.00
2018-05-19T05:40:37.619Z,20.97
2018-05-19T05:43:05.777Z,28.87
2018-05-19T05:45:33.924Z,25.70
2018-05-19T05:48:02.826Z,24.90
2018-05-19T05:50:30.986Z,29.60
2018-05-19T05:52:59.877Z,22.50
2018-05-19T05:55:28.054Z,31.90
2018-05-19T05:57:56.193Z,32.40
2018-05-19T06:00:24.329Z,26.83
2018-05-19T06:02:52.490Z,25.97
2018-05-19T06:05:20.632Z,26.73
2018-05-19T06:07:49.558Z,24.03
2018-05-19T06:10:17.701Z,25.50
2018-05-19T06:12:45.872Z,26.63
2018-05-19T06:15:14.760Z,24.50
2018-05-19T06:17:43.788Z,24.67
2018-05-19T06:20:11.905Z,23.60
2018-05-19T06:22:40.056Z,26.00
2018-05-19T06:25:08.952Z,20.80
2018-05-19T06:27:37.101Z,26.47
2018-05-19T06:30:05.228Z,22.57
2018-05-19T06:32:34.146Z,22.70
2018-05-19T06:35:02.285Z,20.23
2018-05-19T06:37:31.193Z,26.40
2018-05-19T06:39:59.329Z,21.63
2018-05-19T06:42:27.480Z,18.33
2018-05-19T06:44:55.680Z,22.40
2018-05-19T06:47:24.594Z,25.23
2018-05-19T06:49:52.732Z,19.90
2018-05-19T06:52:20.876Z,18.90
2018-05-19T06:54:49.009Z,21.23
2018-05-19T06:57:17.172Z,18.83
2018-05-19T06:59:46.068Z,18.37
2018-05-19T07:02:14.208Z,20.20
2018-05-19T07:04:42.362Z,19.30
2018-05-19T07:07:10.488Z,24.37
2018-05-19T07:09:38.642Z,25.07
2018-05-19T07:12:06.766Z,23.20
2018-05-19T07:14:34.907Z,22.50
2018-05-19T07:17:03.040Z,25.73
2018-05-19T07:19:31.185Z,24.77
2018-05-19T07:21:59.321Z,26.10
2018-05-19T07:24:27.492Z,25.93
2018-05-19T07:26:56.408Z,28.43
2018-05-19T07:29:24.543Z,22.30
2018-05-19T07:31:52.704Z,23.23
2018-05-19T07:34:21.624Z,21.23
2018-05-19T07:36:49.756Z,23.27
2018-05-19T07:39:18.697Z,20.37
2018-05-19T07:41:46.854Z,27.67
2018-05-19T07:44:15.004Z,22.43
2018-05-19T07:46:43.233Z,23.60
2018-05-19T07:49:11.388Z,25.50
2018-05-19T07:51:39.525Z,27.20
2018-05-19T07:54:07.660Z,23.07
2018-05-19T07:56:35.919Z,21.03
2018-05-19T07:59:04.128Z,23.43
2018-05-19T08:01:33.132Z,24.93
2018-05-19T08:04:02.034Z,24.03
2018-05-19T08:06:30.242Z,23.97
2018-05-19T08:08:58.327Z,25.50
2018-05-19T08:11:26.483Z,23.60
2018-05-19T08:13:54.609Z,25.10
2018-05-19T08:16:22.763Z,26.20
2018-05-19T08:18:50.900Z,20.10
2018-05-19T08:21:19.061Z,23.73
2018-05-19T08:23:47.197Z,24.80
2018-05-19T08:26:16.107Z,21.07
2018-05-19T08:28:44.232Z,21.73
2018-05-19T08:31:12.381Z,22.60
2018-05-19T08:33:40.512Z,23.70
2018-05-19T08:36:08.664Z,21.63
2018-05-19T08:38:37.556Z,28.93
2018-05-19T08:41:06.477Z,22.93
2018-05-19T08:43:34.602Z,25.23
2018-05-19T08:46:02.755Z,21.80
2018-05-19T08:48:30.936Z,21.80
2018-05-19T08:50:59.076Z,29.40
2018-05-19T08:53:27.246Z,21.83
2018-05-19T08:55:55.377Z,25.70
2018-05-19T08:58:24.284Z,27.00
2018-05-19T09:00:52.549Z,23.27
2018-05-19T09:03:20.708Z,22.53
2018-05-19T09:05:49.625Z,20.80
2018-05-19T09:08:17.821Z,20.27
2018-05-19T09:10:45.945Z,24.57
2018-05-19T09:13:14.861Z,23.60
2018-05-19T09:15:43.017Z,22.37
2018-05-19T09:18:11.179Z,25.67
2018-05-19T09:20:40.088Z,25.27
2018-05-19T09:23:09.021Z,19.03
2018-05-19T09:25:37.148Z,23.20
2018-05-19T09:28:05.326Z,21.40
2018-05-19T09:30:34.276Z,21.80
2018-05-19T09:33:02.420Z,22.90
2018-05-19T09:35:31.341Z,21.47
2018-05-19T09:37:59.483Z,23.20
2018-05-19T09:40:27.636Z,27.93
2018-05-19T09:42:55.779Z,28.37
2018-05-19T09:45:23.920Z,26.70
2018-05-19T09:47:52.064Z,24.00
2018-05-19T09:50:20.214Z,21.53
2018-05-19T09:52:48.409Z,23.40
2018-05-19T09:55:16.552Z,26.10
2018-05-19T09:57:44.686Z,19.10
2018-05-19T10:00:16.084Z,22.93
2018-05-19T10:02:44.191Z,19.23
2018-05-19T10:05:12.435Z,21.83
2018-05-19T10:07:40.487Z,20.00
2018-05-19T10:10:08.652Z,19.30
2018-05-19T10:12:36.810Z,21.60
2018-05-19T10:15:04.961Z,21.20
2018-05-19T10:17:33.094Z,22.00
2018-05-19T10:20:01.239Z,20.93
2018-05-19T10:22:29.730Z,26.73
2018-05-19T10:24:57.873Z,20.20
2018-05-19T10:27:26.766Z,20.70
2018-05-19T10:29:55.701Z,24.93
2018-05-19T10:32:23.832Z,24.07
2018-05-19T10:34:51.985Z,24.27
2018-05-19T10:37:20.119Z,22.07
2018-05-19T10:39:48.264Z,22.30
2018-05-19T10:42:16.416Z,21.90
2018-05-19T10:44:44.550Z,20.50
2018-05-19T10:47:12.705Z,21.23
2018-05-19T10:49:40.844Z,25.00
2018-05-19T10:52:08.993Z,19.10
2018-05-19T10:54:37.902Z,20.70
2018-05-19T10:57:06.064Z,16.67
2018-05-19T10:59:35.358Z,18.53
2018-05-19T11:02:04.000Z,18.03
2018-05-19T11:04:32.141Z,16.60
2018-05-19T11:07:00.286Z,19.80
2018-05-19T11:09:29.176Z,17.87
2018-05-19T11:11:58.088Z,16.57
2018-05-19T11:14:26.221Z,20.03
2018-05-19T11:16:55.133Z,15.03
2018-05-19T11:19:23.280Z,16.90
2018-05-19T11:21:51.431Z,15.87
2018-05-19T11:24:19.560Z,20.03
2018-05-19T11:26:47.729Z,18.77
2018-05-19T11:29:15.874Z,16.90
2018-05-19T11:31:44.777Z,16.27
2018-05-19T11:34:12.928Z,17.37
2018-05-19T11:36:41.057Z,13.40
2018-05-19T11:39:09.202Z,14.00
2018-05-19T11:41:37.422Z,13.90
2018-05-19T11:44:05.484Z,14.70
2018-05-19T11:46:33.613Z,12.50
2018-05-19T11:49:01.764Z,14.03
2018-05-19T11:51:29.894Z,15.97
2018-05-19T11:53:58.044Z,15.60
2018-05-19T11:56:26.172Z,16.70
2018-05-19T11:58:54.316Z,15.00
2018-05-19T12:01:22.466Z,15.63
2018-05-19T12:03:50.612Z,15.37
2018-05-19T12:06:18.747Z,16.43
2018-05-19T12:08:46.906Z,16.67
2018-05-19T12:11:15.039Z,15.30
2018-05-19T12:13:43.196Z,14.87
2018-05-19T12:16:12.086Z,16.57
2018-05-19T12:18:40.240Z,14.40
2018-05-19T12:21:08.368Z,14.00
2018-05-19T12:23:36.512Z,15.30
2018-05-19T12:26:04.657Z,16.13
2018-05-19T12:28:32.805Z,17.07
2018-05-19T12:31:00.955Z,16.40
2018-05-19T12:33:29.088Z,16.97
2018-05-19T12:35:57.236Z,18.20
2018-05-19T12:38:25.390Z,14.23
2018-05-19T12:40:53.547Z,17.90
2018-05-19T12:43:21.692Z,19.23
2018-05-19T12:45:49.848Z,16.67
2018-05-19T12:48:18.096Z,14.53
2018-05-19T12:50:46.244Z,16.23
2018-05-19T12:53:15.204Z,18.53
2018-05-19T12:55:43.350Z,18.77
2018-05-19T12:58:12.249Z,16.30
2018-05-19T13:00:40.413Z,16.57
2018-05-19T13:03:08.553Z,17.30
2018-05-19T13:05:36.706Z,17.50
2018-05-19T13:08:04.841Z,17.00
2018-05-19T13:10:33.009Z,16.73
2018-05-19T13:13:01.149Z,24.70
2018-05-19T13:15:29.286Z,17.60
2018-05-19T13:17:58.201Z,14.87
2018-05-19T13:20:26.349Z,16.13
2018-05-19T13:22:55.277Z,15.47
2018-05-19T13:25:23.408Z,17.13
2018-05-19T13:27:51.680Z,17.93
2018-05-19T13:30:20.441Z,15.60
2018-05-19T13:32:48.592Z,16.00
2018-05-19T13:35:17.491Z,14.33
2018-05-19T13:37:46.429Z,15.83
2018-05-19T13:40:14.555Z,18.67
2018-05-19T13:42:42.708Z,16.77
2018-05-19T13:45:10.860Z,16.67
2018-05-19T13:47:39.050Z,16.93
2018-05-19T13:50:07.967Z,14.00
2018-05-19T13:52:36.148Z,14.57
2018-05-19T13:55:04.292Z,15.63
2018-05-19T13:57:33.213Z,14.53
2018-05-19T14:00:01.354Z,16.03
2018-05-19T14:02:30.268Z,14.73
2018-05-19T14:04:58.406Z,18.23
2018-05-19T14:07:27.329Z,14.23
2018-05-19T14:09:55.479Z,18.03
2018-05-19T14:12:24.391Z,16.80
2018-05-19T14:14:52.521Z,14.43
2018-05-19T14:17:20.670Z,16.80
2018-05-19T14:19:48.802Z,14.87
2018-05-19T14:22:16.937Z,17.27
2018-05-19T14:24:45.099Z,16.80
2018-05-19T14:27:13.233Z,15.87
2018-05-19T14:29:41.382Z,14.87
2018-05-19T14:32:09.515Z,15.00
2018-05-19T14:34:37.664Z,15.07
2018-05-19T14:37:05.796Z,15.73
2018-05-19T14:39:33.951Z,15.63
2018-05-19T14:42:02.848Z,14.17
2018-05-19T14:44:31.822Z,16.23
2018-05-19T14:46:59.946Z,14.23
2018-05-19T14:49:28.109Z,17.07
2018-05-19T14:51:56.246Z,15.97
2018-05-19T14:54:24.405Z,17.80
2018-05-19T14:56:52.536Z,18.30
2018-05-19T14:59:20.688Z,16.60
2018-05-19T15:01:48.827Z,13.60
2018-05-19T15:04:16.970Z,15.30
2018-05-19T15:06:45.105Z,16.07
2018-05-19T15:09:13.261Z,12.50
2018-05-19T15:11:42.434Z,16.47
2018-05-19T15:14:10.595Z,19.20
2018-05-19T15:16:38.731Z,16.97
2018-05-19T15:19:06.871Z,13.23
2018-05-19T15:21:35.017Z,7.67
2018-05-19T15:24:03.132Z,6.67
2018-05-19T15:26:31.265Z,7.00
2018-05-19T15:28:59.404Z,7.33
2018-05-19T15:31:27.549Z,7.23
2018-05-19T15:33:55.676Z,7.13
2018-05-19T15:36:23.817Z,6.83
2018-05-19T15:38:51.947Z,7.30
2018-05-19T15:41:20.328Z,7.40
2018-05-19T15:43:48.482Z,6.80
2018-05-19T15:46:17.384Z,7.23
2018-05-19T15:48:45.517Z,6.93
2018-05-19T15:51:13.649Z,7.00
2018-05-19T15:53:41.776Z,7.37
2018-05-19T15:56:10.015Z,6.60
2018-05-19T15:58:38.072Z,7.30
2018-05-19T16:01:06.226Z,6.40
2018-05-19T16:03:34.367Z,8.53
2018-05-19T16:06:03.291Z,7.20
2018-05-19T16:08:31.407Z,6.63
2018-05-19T16:10:59.553Z,7.10
2018-05-19T16:13:27.677Z,6.47
2018-05-19T16:15:56.560Z,6.90
2018-05-19T16:18:25.550Z,7.07
2018-05-19T16:20:53.600Z,7.90
2018-05-19T16:23:21.745Z,6.93
2018-05-19T16:25:49.869Z,7.33
2018-05-19T16:28:18.767Z,6.27
2018-05-19T16:30:47.659Z,7.87
2018-05-19T16:33:16.560Z,8.10
2018-05-19T16:35:44.680Z,8.33
2018-05-19T16:38:12.839Z,9.73
2018-05-19T16:40:40.960Z,10.87
2018-05-19T16:43:09.109Z,9.07
2018-05-19T16:45:37.232Z,10.60
2018-05-19T16:48:05.368Z,8.73
2018-05-19T16:50:34.262Z,7.00
2018-05-19T16:53:02.408Z,6.97
2018-05-19T16:55:30.533Z,6.27
2018-05-19T16:57:58.689Z,6.50
2018-05-19T17:00:26.809Z,6.63
2018-05-19T17:02:55.716Z,6.27
2018-05-19T17:05:23.845Z,9.37
2018-05-19T17:07:51.987Z,6.87
2018-05-19T17:10:20.117Z,6.10
2018-05-19T17:12:48.246Z,5.70
2018-05-19T17:15:16.390Z,5.67
2018-05-19T17:17:45.288Z,6.33
2018-05-19T17:20:13.549Z,5.83
2018-05-19T17:22:42.449Z,5.03
2018-05-19T17:25:11.356Z,5.90
2018-05-19T17:27:39.485Z,6.83
2018-05-19T17:30:07.626Z,5.50
2018-05-19T17:32:35.748Z,5.60
2018-05-19T17:35:04.652Z,6.10
2018-05-19T17:37:32.790Z,5.50
2018-05-19T17:40:00.944Z,6.30
2018-05-19T17:42:29.415Z,4.93
2018-05-19T17:44:57.568Z,3.87
2018-05-19T17:47:25.714Z,4.30
2018-05-19T17:49:53.856Z,4.60
2018-05-19T17:52:21.982Z,3.37
2018-05-19T17:54:50.136Z,3.30
2018-05-19T17:57:18.269Z,3.30
2018-05-19T17:59:46.404Z,3.60
2018-05-19T18:02:14.620Z,3.17
2018-05-19T18:04:42.742Z,3.90
2018-05-19T18:07:10.894Z,3.63
2018-05-19T18:09:39.029Z,3.43
2018-05-19T18:12:07.177Z,4.00
2018-05-19T18:14:35.293Z,3.60
2018-05-19T18:17:03.445Z,3.80
2018-05-19T18:19:31.572Z,4.30
2018-05-19T18:21:59.704Z,3.97
2018-05-19T18:24:28.645Z,3.63
2018-05-19T18:26:56.785Z,3.90
2018-05-19T18:29:24.966Z,4.87
2018-05-19T18:31:54.036Z,4.53
2018-05-19T18:34:22.925Z,4.43
2018-05-19T18:36:51.082Z,4.93
2018-05-19T18:39:19.200Z,6.83
2018-05-19T18:41:47.340Z,4.80
2018-05-19T18:44:16.281Z,4.97
2018-05-19T18:46:44.469Z,4.93
2018-05-19T18:49:12.590Z,5.33
2018-05-19T18:51:45.744Z,5.10
2018-05-19T18:54:13.832Z,5.10
2018-05-19T18:56:42.020Z,4.70
2018-05-19T18:59:10.172Z,4.83
2018-05-19T19:01:38.301Z,5.33
2018-05-19T19:04:06.444Z,4.70
2018-05-19T19:06:34.613Z,5.20
2018-05-19T19:09:02.756Z,5.40
2018-05-19T19:11:31.651Z,4.97
2018-05-19T19:14:00.548Z,5.10
2018-05-19T19:16:29.470Z,4.90
2018-05-19T19:18:57.608Z,4.73
2018-05-19T19:21:26.623Z,4.67
2018-05-19T19:23:54.784Z,4.97
2018-05-19T19:26:22.918Z,4.40
2018-05-19T19:28:51.054Z,4.40
2018-05-19T19:31:19.180Z,5.83
2018-05-19T19:33:47.316Z,5.33
2018-05-19T19:36:15.501Z,6.13
2018-05-19T19:38:43.673Z,6.03
2018-05-19T19:41:12.767Z,5.30
2018-05-19T19:43:40.897Z,4.70
2018-05-19T19:46:09.068Z,5.30
2018-05-19T19:48:37.215Z,5.23
2018-05-19T19:51:06.116Z,5.10
2018-05-19T19:53:34.360Z,5.13
2018-05-19T19:56:03.264Z,5.10
2018-05-19T19:58:32.230Z,4.97
2018-05-19T20:01:00.359Z,5.53
2018-05-19T20:03:28.491Z,5.17
2018-05-19T20:05:57.402Z,5.30
2018-05-19T20:08:25.593Z,5.50
2018-05-19T20:10:53.772Z,5.07
2018-05-19T20:13:21.976Z,5.17
2018-05-19T20:15:50.100Z,5.10
2018-05-19T20:18:18.243Z,5.50
2018-05-19T20:20:46.393Z,5.30
2018-05-19T20:23:14.513Z,5.33
2018-05-19T20:25:42.668Z,5.10
2018-05-19T20:28:10.809Z,5.97
2018-05-19T20:30:38.938Z,5.53
2018-05-19T20:33:07.076Z,6.43
2018-05-19T20:35:35.965Z,8.23
2018-05-19T20:38:04.121Z,4.97
2018-05-19T20:40:33.017Z,6.03
2018-05-19T20:43:01.917Z,5.50
2018-05-19T20:45:30.882Z,5.80
2018-05-19T20:47:59.021Z,6.87
2018-05-19T20:50:27.148Z,6.57
2018-05-19T20:52:56.049Z,6.70
2018-05-19T20:55:24.198Z,6.23
2018-05-19T20:57:52.341Z,6.70
2018-05-19T21:00:21.550Z,6.20
2018-05-19T21:02:49.708Z,6.70
2018-05-19T21:05:18.207Z,7.83
2018-05-19T21:07:46.472Z,7.27
2018-05-19T21:10:14.599Z,6.37
2018-05-19T21:12:42.737Z,6.20
2018-05-19T21:15:11.624Z,5.80
2018-05-19T21:17:40.529Z,6.13
2018-05-19T21:20:08.654Z,6.07
2018-05-19T21:22:36.805Z,6.07
2018-05-19T21:25:04.938Z,6.07
2018-05-19T21:27:33.071Z,6.70
2018-05-19T21:30:01.208Z,7.33
2018-05-19T21:32:29.329Z,6.77
2018-05-19T21:34:57.468Z,6.50
2018-05-19T21:37:25.609Z,6.10
2018-05-19T21:39:53.756Z,6.33
2018-05-19T21:42:21.873Z,6.40
2018-05-19T21:44:50.020Z,6.17
2018-05-19T21:47:18.906Z,6.13
2018-05-19T21:49:47.839Z,6.13
2018-05-19T21:52:15.952Z,6.00
2018-05-19T21:54:44.867Z,6.13
2018-05-19T21:57:13.004Z,6.47
2018-05-19T21:59:41.141Z,6.20
2018-05-19T22:02:10.077Z,5.80
2018-05-19T22:04:38.980Z,5.60
2018-05-19T22:07:07.121Z,8.40
2018-05-19T22:09:35.266Z,5.97
2018-05-19T22:12:03.406Z,5.43
2018-05-19T22:14:31.608Z,5.77
2018-05-19T22:16:59.712Z,5.97
2018-05-19T22:19:27.883Z,5.37
2018-05-19T22:21:56.003Z,6.13
2018-05-19T22:24:24.136Z,6.30
2018-05-19T22:26:53.040Z,6.30
2018-05-19T22:29:21.936Z,6.13
2018-05-19T22:31:50.393Z,6.83
2018-05-19T22:34:18.884Z,5.97
2018-05-19T22:36:47.006Z,6.67
2018-05-19T22:39:15.129Z,7.77
2018-05-19T22:41:43.276Z,6.93
2018-05-19T22:44:11.396Z,6.90
2018-05-19T22:46:39.550Z,6.37
2018-05-19T22:49:07.672Z,6.50
2018-05-19T22:51:35.868Z,6.73
2018-05-19T22:54:04.006Z,6.47
2018-05-19T22:56:32.157Z,7.03
2018-05-19T22:59:00.300Z,6.33
2018-05-19T23:01:29.207Z,7.20
2018-05-19T23:03:57.348Z,6.40
2018-05-19T23:06:25.501Z,6.73
2018-05-19T23:08:53.644Z,6.97
2018-05-19T23:11:21.780Z,6.80
2018-05-19T23:13:50.701Z,7.50
2018-05-19T23:16:18.841Z,6.60
2018-05-19T23:18:47.737Z,7.50
2018-05-19T23:21:16.637Z,6.67
2018-05-19T23:23:44.765Z,7.00
2018-05-19T23:26:12.917Z,7.07
2018-05-19T23:28:41.036Z,8.13
2018-05-19T23:31:09.920Z,7.67
2018-05-19T23:33:38.832Z,7.27
2018-05-19T23:36:06.957Z,6.80
2018-05-19T23:38:35.096Z,8.43
2018-05-19T23:41:03.302Z,7.37
2018-05-19T23:43:31.452Z,7.53
2018-05-19T23:45:59.580Z,7.03
2018-05-19T23:48:27.716Z,7.47
2018-05-19T23:50:55.841Z,7.80
2018-05-19T23:53:23.975Z,8.43
2018-05-19T23:55:52.101Z,8.20
2018-05-19T23:58:20.244Z,7.53
